sensor_id;sensor_type;location;lat;lon;timestamp;P1;durP1;ratioP1;P2;durP2;ratioP2
13943;SDS011;7044;53.286;8.534;2023-06-05T00:01:55;4.75;;;3.45;;
13943;SDS011;7044;53.286;8.534;2023-06-05T00:04:22;5.35;;;3.13;;
13943;SDS011;7044;53.286;8.534;2023-06-05T00:06:49;6.30;;;3.95;;
13943;SDS011;7044;53.286;8.534;2023-06-05T00:09:16;5.03;;;3.88;;
13943;SDS011;7044;53.286;8.534;2023-06-05T00:11:44;13.68;;;5.00;;
13943;SDS011;7044;53.286;8.534;2023-06-05T00:14:11;8.77;;;4.57;;
13943;SDS011;7044;53.286;8.534;2023-06-05T00:16:38;6.38;;;4.85;;
13943;SDS011;7044;53.286;8.534;2023-06-05T00:19:05;6.95;;;5.03;;
13943;SDS011;7044;53.286;8.534;2023-06-05T00:21:32;8.80;;;5.75;;
13943;SDS011;7044;53.286;8.534;2023-06-05T00:24:00;11.30;;;6.22;;
13943;SDS011;7044;53.286;8.534;2023-06-05T00:26:26;11.20;;;6.28;;
13943;SDS011;7044;53.286;8.534;2023-06-05T00:28:55;9.18;;;6.18;;
13943;SDS011;7044;53.286;8.534;2023-06-05T00:31:21;7.10;;;5.70;;
13943;SDS011;7044;53.286;8.534;2023-06-05T00:33:49;11.48;;;5.65;;
13943;SDS011;7044;53.286;8.534;2023-06-05T00:36:16;9.93;;;6.18;;
13943;SDS011;7044;53.286;8.534;2023-06-05T00:38:44;8.95;;;5.45;;
13943;SDS011;7044;53.286;8.534;2023-06-05T00:41:10;7.45;;;5.68;;
13943;SDS011;7044;53.286;8.534;2023-06-05T00:43:37;6.72;;;5.55;;
13943;SDS011;7044;53.286;8.534;2023-06-05T00:46:05;13.30;;;6.38;;
13943;SDS011;7044;53.286;8.534;2023-06-05T00:48:33;8.98;;;4.85;;
13943;SDS011;7044;53.286;8.534;2023-06-05T00:51:00;7.38;;;5.15;;
13943;SDS011;7044;53.286;8.534;2023-06-05T00:53:27;9.18;;;5.88;;
13943;SDS011;7044;53.286;8.534;2023-06-05T00:55:59;9.05;;;5.47;;
13943;SDS011;7044;53.286;8.534;2023-06-05T00:58:26;10.63;;;5.18;;
13943;SDS011;7044;53.286;8.534;2023-06-05T01:00:57;8.82;;;5.57;;
13943;SDS011;7044;53.286;8.534;2023-06-05T01:03:25;9.20;;;5.57;;
13943;SDS011;7044;53.286;8.534;2023-06-05T01:05:54;7.00;;;5.50;;
13943;SDS011;7044;53.286;8.534;2023-06-05T01:08:28;10.95;;;6.38;;
13943;SDS011;7044;53.286;8.534;2023-06-05T01:10:57;10.00;;;5.38;;
13943;SDS011;7044;53.286;8.534;2023-06-05T01:13:27;9.30;;;4.88;;
13943;SDS011;7044;53.286;8.534;2023-06-05T01:15:58;9.57;;;5.25;;
13943;SDS011;7044;53.286;8.534;2023-06-05T01:18:31;7.90;;;5.30;;
13943;SDS011;7044;53.286;8.534;2023-06-05T01:20:59;8.23;;;5.72;;
13943;SDS011;7044;53.286;8.534;2023-06-05T01:23:29;7.35;;;5.65;;
13943;SDS011;7044;53.286;8.534;2023-06-05T01:25:58;7.57;;;5.55;;
13943;SDS011;7044;53.286;8.534;2023-06-05T01:28:32;10.15;;;5.53;;
13943;SDS011;7044;53.286;8.534;2023-06-05T01:31:00;8.57;;;5.22;;
13943;SDS011;7044;53.286;8.534;2023-06-05T01:33:32;8.95;;;5.72;;
13943;SDS011;7044;53.286;8.534;2023-06-05T01:36:07;9.43;;;5.60;;
13943;SDS011;7044;53.286;8.534;2023-06-05T01:38:37;12.45;;;5.95;;
13943;SDS011;7044;53.286;8.534;2023-06-05T01:41:06;10.13;;;6.00;;
13943;SDS011;7044;53.286;8.534;2023-06-05T01:43:36;9.38;;;6.03;;
13943;SDS011;7044;53.286;8.534;2023-06-05T01:46:03;8.15;;;5.50;;
13943;SDS011;7044;53.286;8.534;2023-06-05T01:48:32;8.57;;;5.07;;
13943;SDS011;7044;53.286;8.534;2023-06-05T01:51:00;11.00;;;5.47;;
13943;SDS011;7044;53.286;8.534;2023-06-05T01:53:27;6.60;;;4.75;;
13943;SDS011;7044;53.286;8.534;2023-06-05T01:55:56;11.07;;;6.05;;
13943;SDS011;7044;53.286;8.534;2023-06-05T01:58:23;13.63;;;5.72;;
13943;SDS011;7044;53.286;8.534;2023-06-05T02:00:51;8.20;;;4.88;;
13943;SDS011;7044;53.286;8.534;2023-06-05T02:03:18;10.38;;;5.25;;
13943;SDS011;7044;53.286;8.534;2023-06-05T02:05:45;7.03;;;4.78;;
13943;SDS011;7044;53.286;8.534;2023-06-05T02:08:13;7.22;;;5.32;;
13943;SDS011;7044;53.286;8.534;2023-06-05T02:10:44;11.40;;;4.90;;
13943;SDS011;7044;53.286;8.534;2023-06-05T02:13:13;10.43;;;5.43;;
13943;SDS011;7044;53.286;8.534;2023-06-05T02:15:40;7.38;;;5.38;;
13943;SDS011;7044;53.286;8.534;2023-06-05T02:18:10;9.15;;;4.97;;
13943;SDS011;7044;53.286;8.534;2023-06-05T02:20:38;5.57;;;4.13;;
13943;SDS011;7044;53.286;8.534;2023-06-05T02:23:06;6.90;;;5.05;;
13943;SDS011;7044;53.286;8.534;2023-06-05T02:25:33;8.30;;;5.20;;
13943;SDS011;7044;53.286;8.534;2023-06-05T02:28:00;10.52;;;5.00;;
13943;SDS011;7044;53.286;8.534;2023-06-05T02:30:28;6.45;;;4.80;;
13943;SDS011;7044;53.286;8.534;2023-06-05T02:32:55;11.88;;;5.35;;
13943;SDS011;7044;53.286;8.534;2023-06-05T02:35:25;5.93;;;4.53;;
13943;SDS011;7044;53.286;8.534;2023-06-05T02:37:54;7.40;;;4.95;;
13943;SDS011;7044;53.286;8.534;2023-06-05T02:40:21;10.32;;;5.55;;
13943;SDS011;7044;53.286;8.534;2023-06-05T02:42:49;8.73;;;5.25;;
13943;SDS011;7044;53.286;8.534;2023-06-05T02:45:16;8.65;;;4.85;;
13943;SDS011;7044;53.286;8.534;2023-06-05T02:47:44;8.95;;;4.93;;
13943;SDS011;7044;53.286;8.534;2023-06-05T02:50:11;6.93;;;4.88;;
13943;SDS011;7044;53.286;8.534;2023-06-05T02:52:38;5.50;;;4.07;;
13943;SDS011;7044;53.286;8.534;2023-06-05T02:55:05;6.82;;;4.05;;
13943;SDS011;7044;53.286;8.534;2023-06-05T02:57:33;6.60;;;4.70;;
13943;SDS011;7044;53.286;8.534;2023-06-05T03:00:06;8.35;;;4.57;;
13943;SDS011;7044;53.286;8.534;2023-06-05T03:02:34;9.10;;;4.85;;
13943;SDS011;7044;53.286;8.534;2023-06-05T03:05:04;7.38;;;4.93;;
13943;SDS011;7044;53.286;8.534;2023-06-05T03:07:32;6.88;;;4.53;;
13943;SDS011;7044;53.286;8.534;2023-06-05T03:09:59;5.78;;;4.38;;
13943;SDS011;7044;53.286;8.534;2023-06-05T03:12:26;9.55;;;4.53;;
13943;SDS011;7044;53.286;8.534;2023-06-05T03:14:53;6.95;;;4.80;;
13943;SDS011;7044;53.286;8.534;2023-06-05T03:17:20;6.35;;;4.40;;
13943;SDS011;7044;53.286;8.534;2023-06-05T03:19:48;5.18;;;4.28;;
13943;SDS011;7044;53.286;8.534;2023-06-05T03:22:17;5.93;;;4.47;;
13943;SDS011;7044;53.286;8.534;2023-06-05T03:24:44;5.43;;;4.20;;
13943;SDS011;7044;53.286;8.534;2023-06-05T03:27:11;8.18;;;4.57;;
13943;SDS011;7044;53.286;8.534;2023-06-05T03:29:38;5.97;;;4.47;;
13943;SDS011;7044;53.286;8.534;2023-06-05T03:32:05;7.70;;;5.03;;
13943;SDS011;7044;53.286;8.534;2023-06-05T03:34:32;8.35;;;4.45;;
13943;SDS011;7044;53.286;8.534;2023-06-05T03:37:01;5.22;;;4.40;;
13943;SDS011;7044;53.286;8.534;2023-06-05T03:39:30;11.40;;;4.93;;
13943;SDS011;7044;53.286;8.534;2023-06-05T03:41:57;7.15;;;4.30;;
13943;SDS011;7044;53.286;8.534;2023-06-05T03:44:23;7.70;;;4.53;;
13943;SDS011;7044;53.286;8.534;2023-06-05T03:46:50;6.53;;;4.82;;
13943;SDS011;7044;53.286;8.534;2023-06-05T03:49:17;7.53;;;4.65;;
13943;SDS011;7044;53.286;8.534;2023-06-05T03:51:45;9.02;;;4.32;;
13943;SDS011;7044;53.286;8.534;2023-06-05T03:54:13;8.00;;;4.50;;
13943;SDS011;7044;53.286;8.534;2023-06-05T03:56:43;10.93;;;4.05;;
13943;SDS011;7044;53.286;8.534;2023-06-05T03:59:14;8.18;;;5.05;;
13943;SDS011;7044;53.286;8.534;2023-06-05T04:01:45;5.07;;;4.07;;
13943;SDS011;7044;53.286;8.534;2023-06-05T04:04:12;6.97;;;4.43;;
13943;SDS011;7044;53.286;8.534;2023-06-05T04:06:39;10.57;;;4.25;;
13943;SDS011;7044;53.286;8.534;2023-06-05T04:09:06;5.68;;;3.83;;
13943;SDS011;7044;53.286;8.534;2023-06-05T04:11:37;4.53;;;3.40;;
13943;SDS011;7044;53.286;8.534;2023-06-05T04:14:05;3.47;;;2.72;;
13943;SDS011;7044;53.286;8.534;2023-06-05T04:16:33;4.20;;;3.10;;
13943;SDS011;7044;53.286;8.534;2023-06-05T04:19:00;5.45;;;3.42;;
13943;SDS011;7044;53.286;8.534;2023-06-05T04:21:27;6.35;;;3.53;;
13943;SDS011;7044;53.286;8.534;2023-06-05T04:23:54;8.38;;;4.15;;
13943;SDS011;7044;53.286;8.534;2023-06-05T04:26:21;9.20;;;3.53;;
13943;SDS011;7044;53.286;8.534;2023-06-05T04:28:51;5.97;;;3.85;;
13943;SDS011;7044;53.286;8.534;2023-06-05T04:31:22;5.00;;;3.72;;
13943;SDS011;7044;53.286;8.534;2023-06-05T04:33:50;5.95;;;3.88;;
13943;SDS011;7044;53.286;8.534;2023-06-05T04:36:17;6.32;;;3.90;;
13943;SDS011;7044;53.286;8.534;2023-06-05T04:38:44;7.03;;;4.70;;
13943;SDS011;7044;53.286;8.534;2023-06-05T04:41:11;9.18;;;4.60;;
13943;SDS011;7044;53.286;8.534;2023-06-05T04:43:38;5.75;;;4.00;;
13943;SDS011;7044;53.286;8.534;2023-06-05T04:46:05;6.50;;;4.05;;
13943;SDS011;7044;53.286;8.534;2023-06-05T04:48:34;13.73;;;4.70;;
13943;SDS011;7044;53.286;8.534;2023-06-05T04:51:01;6.47;;;4.40;;
13943;SDS011;7044;53.286;8.534;2023-06-05T04:53:29;8.18;;;5.82;;
13943;SDS011;7044;53.286;8.534;2023-06-05T04:55:56;8.23;;;5.00;;
13943;SDS011;7044;53.286;8.534;2023-06-05T04:58:25;10.00;;;5.35;;
13943;SDS011;7044;53.286;8.534;2023-06-05T05:00:52;8.52;;;5.28;;
13943;SDS011;7044;53.286;8.534;2023-06-05T05:03:18;7.32;;;5.57;;
13943;SDS011;7044;53.286;8.534;2023-06-05T05:05:47;9.70;;;5.57;;
13943;SDS011;7044;53.286;8.534;2023-06-05T05:08:13;7.68;;;5.05;;
13943;SDS011;7044;53.286;8.534;2023-06-05T05:10:41;9.05;;;5.40;;
13943;SDS011;7044;53.286;8.534;2023-06-05T05:13:07;16.00;;;5.47;;
13943;SDS011;7044;53.286;8.534;2023-06-05T05:15:34;8.10;;;5.18;;
13943;SDS011;7044;53.286;8.534;2023-06-05T05:18:01;9.60;;;5.03;;
13943;SDS011;7044;53.286;8.534;2023-06-05T05:20:28;8.07;;;5.40;;
13943;SDS011;7044;53.286;8.534;2023-06-05T05:22:58;8.50;;;4.85;;
13943;SDS011;7044;53.286;8.534;2023-06-05T05:25:26;7.75;;;5.78;;
13943;SDS011;7044;53.286;8.534;2023-06-05T05:27:53;7.15;;;5.15;;
13943;SDS011;7044;53.286;8.534;2023-06-05T05:30:20;8.55;;;5.30;;
13943;SDS011;7044;53.286;8.534;2023-06-05T05:32:47;14.07;;;5.57;;
13943;SDS011;7044;53.286;8.534;2023-06-05T05:35:13;11.30;;;5.50;;
13943;SDS011;7044;53.286;8.534;2023-06-05T05:37:40;13.57;;;5.63;;
13943;SDS011;7044;53.286;8.534;2023-06-05T05:40:09;8.27;;;5.30;;
13943;SDS011;7044;53.286;8.534;2023-06-05T05:42:36;7.57;;;5.47;;
13943;SDS011;7044;53.286;8.534;2023-06-05T05:45:04;7.90;;;5.20;;
13943;SDS011;7044;53.286;8.534;2023-06-05T05:47:32;7.88;;;5.68;;
13943;SDS011;7044;53.286;8.534;2023-06-05T05:49:58;10.00;;;5.15;;
13943;SDS011;7044;53.286;8.534;2023-06-05T05:52:25;8.25;;;5.00;;
13943;SDS011;7044;53.286;8.534;2023-06-05T05:54:52;10.50;;;5.00;;
13943;SDS011;7044;53.286;8.534;2023-06-05T05:57:21;9.13;;;5.30;;
13943;SDS011;7044;53.286;8.534;2023-06-05T05:59:47;9.43;;;4.72;;
13943;SDS011;7044;53.286;8.534;2023-06-05T06:02:14;9.95;;;5.63;;
13943;SDS011;7044;53.286;8.534;2023-06-05T06:04:41;12.13;;;5.60;;
13943;SDS011;7044;53.286;8.534;2023-06-05T06:07:10;9.68;;;5.20;;
13943;SDS011;7044;53.286;8.534;2023-06-05T06:09:38;7.78;;;4.70;;
13943;SDS011;7044;53.286;8.534;2023-06-05T06:12:05;7.47;;;4.63;;
13943;SDS011;7044;53.286;8.534;2023-06-05T06:14:34;7.07;;;4.47;;
13943;SDS011;7044;53.286;8.534;2023-06-05T06:17:01;11.63;;;5.65;;
13943;SDS011;7044;53.286;8.534;2023-06-05T06:19:30;8.13;;;4.50;;
13943;SDS011;7044;53.286;8.534;2023-06-05T06:21:58;5.43;;;4.78;;
13943;SDS011;7044;53.286;8.534;2023-06-05T06:24:25;7.55;;;4.97;;
13943;SDS011;7044;53.286;8.534;2023-06-05T06:26:52;6.28;;;5.00;;
13943;SDS011;7044;53.286;8.534;2023-06-05T06:29:20;24.00;;;5.05;;
13943;SDS011;7044;53.286;8.534;2023-06-05T06:31:49;7.10;;;4.88;;
13943;SDS011;7044;53.286;8.534;2023-06-05T06:34:17;8.90;;;4.22;;
13943;SDS011;7044;53.286;8.534;2023-06-05T06:36:44;7.50;;;4.47;;
13943;SDS011;7044;53.286;8.534;2023-06-05T06:39:11;5.70;;;4.50;;
13943;SDS011;7044;53.286;8.534;2023-06-05T06:41:39;8.18;;;4.57;;
13943;SDS011;7044;53.286;8.534;2023-06-05T06:44:05;10.68;;;4.30;;
13943;SDS011;7044;53.286;8.534;2023-06-05T06:46:32;10.75;;;4.22;;
13943;SDS011;7044;53.286;8.534;2023-06-05T06:49:00;10.52;;;3.95;;
13943;SDS011;7044;53.286;8.534;2023-06-05T06:51:27;6.70;;;3.95;;
13943;SDS011;7044;53.286;8.534;2023-06-05T06:53:54;7.00;;;4.25;;
13943;SDS011;7044;53.286;8.534;2023-06-05T06:56:21;10.60;;;4.13;;
13943;SDS011;7044;53.286;8.534;2023-06-05T06:58:48;8.30;;;4.57;;
13943;SDS011;7044;53.286;8.534;2023-06-05T07:01:15;8.00;;;4.18;;
13943;SDS011;7044;53.286;8.534;2023-06-05T07:03:41;7.03;;;4.32;;
13943;SDS011;7044;53.286;8.534;2023-06-05T07:06:10;5.25;;;3.92;;
13943;SDS011;7044;53.286;8.534;2023-06-05T07:08:37;10.25;;;4.28;;
13943;SDS011;7044;53.286;8.534;2023-06-05T07:11:04;6.40;;;3.90;;
13943;SDS011;7044;53.286;8.534;2023-06-05T07:13:31;7.15;;;3.67;;
13943;SDS011;7044;53.286;8.534;2023-06-05T07:15:57;5.78;;;4.10;;
13943;SDS011;7044;53.286;8.534;2023-06-05T07:18:24;9.48;;;4.45;;
13943;SDS011;7044;53.286;8.534;2023-06-05T07:20:52;6.22;;;4.25;;
13943;SDS011;7044;53.286;8.534;2023-06-05T07:23:20;14.40;;;3.92;;
13943;SDS011;7044;53.286;8.534;2023-06-05T07:25:47;9.80;;;4.72;;
13943;SDS011;7044;53.286;8.534;2023-06-05T07:28:14;6.95;;;4.15;;
13943;SDS011;7044;53.286;8.534;2023-06-05T07:30:41;9.70;;;4.05;;
13943;SDS011;7044;53.286;8.534;2023-06-05T07:33:09;9.38;;;4.47;;
13943;SDS011;7044;53.286;8.534;2023-06-05T07:35:36;6.28;;;4.18;;
13943;SDS011;7044;53.286;8.534;2023-06-05T07:38:03;6.85;;;4.57;;
13943;SDS011;7044;53.286;8.534;2023-06-05T07:40:32;5.03;;;3.80;;
13943;SDS011;7044;53.286;8.534;2023-06-05T07:42:58;7.95;;;4.50;;
13943;SDS011;7044;53.286;8.534;2023-06-05T07:45:25;6.90;;;4.10;;
13943;SDS011;7044;53.286;8.534;2023-06-05T07:47:52;8.00;;;4.35;;
13943;SDS011;7044;53.286;8.534;2023-06-05T07:50:19;7.13;;;4.28;;
13943;SDS011;7044;53.286;8.534;2023-06-05T07:52:46;10.05;;;4.70;;
13943;SDS011;7044;53.286;8.534;2023-06-05T07:55:13;6.32;;;4.43;;
13943;SDS011;7044;53.286;8.534;2023-06-05T07:57:41;6.55;;;4.65;;
13943;SDS011;7044;53.286;8.534;2023-06-05T08:00:08;6.32;;;4.35;;
13943;SDS011;7044;53.286;8.534;2023-06-05T08:02:36;6.20;;;4.18;;
13943;SDS011;7044;53.286;8.534;2023-06-05T08:05:04;8.25;;;4.53;;
13943;SDS011;7044;53.286;8.534;2023-06-05T08:07:32;7.45;;;4.85;;
13943;SDS011;7044;53.286;8.534;2023-06-05T08:09:59;7.15;;;4.70;;
13943;SDS011;7044;53.286;8.534;2023-06-05T08:12:26;7.78;;;4.57;;
13943;SDS011;7044;53.286;8.534;2023-06-05T08:14:54;6.85;;;4.32;;
13943;SDS011;7044;53.286;8.534;2023-06-05T08:17:21;6.70;;;3.80;;
13943;SDS011;7044;53.286;8.534;2023-06-05T08:19:48;8.55;;;4.38;;
13943;SDS011;7044;53.286;8.534;2023-06-05T08:22:15;6.65;;;4.53;;
13943;SDS011;7044;53.286;8.534;2023-06-05T08:24:42;7.55;;;4.57;;
13943;SDS011;7044;53.286;8.534;2023-06-05T08:27:09;6.47;;;4.43;;
13943;SDS011;7044;53.286;8.534;2023-06-05T08:29:36;8.02;;;4.35;;
13943;SDS011;7044;53.286;8.534;2023-06-05T08:32:04;6.00;;;4.00;;
13943;SDS011;7044;53.286;8.534;2023-06-05T08:34:31;6.82;;;5.00;;
13943;SDS011;7044;53.286;8.534;2023-06-05T08:36:58;7.53;;;4.60;;
13943;SDS011;7044;53.286;8.534;2023-06-05T08:39:25;6.78;;;4.80;;
13943;SDS011;7044;53.286;8.534;2023-06-05T08:41:57;10.00;;;5.15;;
13943;SDS011;7044;53.286;8.534;2023-06-05T08:44:25;9.43;;;4.68;;
13943;SDS011;7044;53.286;8.534;2023-06-05T08:46:52;10.77;;;5.43;;
13943;SDS011;7044;53.286;8.534;2023-06-05T08:49:26;11.57;;;5.72;;
13943;SDS011;7044;53.286;8.534;2023-06-05T08:51:55;6.63;;;4.68;;
13943;SDS011;7044;53.286;8.534;2023-06-05T08:54:27;9.88;;;5.43;;
13943;SDS011;7044;53.286;8.534;2023-06-05T08:56:57;7.50;;;5.10;;
13943;SDS011;7044;53.286;8.534;2023-06-05T08:59:24;10.88;;;5.32;;
13943;SDS011;7044;53.286;8.534;2023-06-05T09:01:52;7.45;;;5.15;;
13943;SDS011;7044;53.286;8.534;2023-06-05T09:04:20;10.98;;;5.32;;
13943;SDS011;7044;53.286;8.534;2023-06-05T09:06:48;8.00;;;6.10;;
13943;SDS011;7044;53.286;8.534;2023-06-05T09:09:17;8.32;;;5.65;;
13943;SDS011;7044;53.286;8.534;2023-06-05T09:11:44;10.18;;;5.88;;
13943;SDS011;7044;53.286;8.534;2023-06-05T09:14:11;6.25;;;4.80;;
13943;SDS011;7044;53.286;8.534;2023-06-05T09:16:39;13.68;;;5.70;;
13943;SDS011;7044;53.286;8.534;2023-06-05T09:19:08;6.82;;;5.28;;
13943;SDS011;7044;53.286;8.534;2023-06-05T09:21:36;8.65;;;5.50;;
13943;SDS011;7044;53.286;8.534;2023-06-05T09:24:14;8.13;;;5.68;;
13943;SDS011;7044;53.286;8.534;2023-06-05T09:26:48;9.82;;;5.43;;
13943;SDS011;7044;53.286;8.534;2023-06-05T09:29:24;11.18;;;6.18;;
13943;SDS011;7044;53.286;8.534;2023-06-05T09:31:53;7.30;;;5.68;;
13943;SDS011;7044;53.286;8.534;2023-06-05T09:34:25;11.52;;;5.78;;
13943;SDS011;7044;53.286;8.534;2023-06-05T09:36:54;9.93;;;5.80;;
13943;SDS011;7044;53.286;8.534;2023-06-05T09:39:24;9.88;;;5.63;;
13943;SDS011;7044;53.286;8.534;2023-06-05T09:41:51;6.53;;;4.85;;
13943;SDS011;7044;53.286;8.534;2023-06-05T09:44:19;7.28;;;5.43;;
13943;SDS011;7044;53.286;8.534;2023-06-05T09:46:53;6.93;;;5.35;;
13943;SDS011;7044;53.286;8.534;2023-06-05T09:49:21;9.82;;;5.57;;
13943;SDS011;7044;53.286;8.534;2023-06-05T09:51:50;9.70;;;5.75;;
13943;SDS011;7044;53.286;8.534;2023-06-05T09:54:17;7.97;;;5.35;;
13943;SDS011;7044;53.286;8.534;2023-06-05T09:56:48;6.85;;;5.57;;
13943;SDS011;7044;53.286;8.534;2023-06-05T09:59:19;8.48;;;6.15;;
13943;SDS011;7044;53.286;8.534;2023-06-05T10:01:48;11.52;;;5.75;;
13943;SDS011;7044;53.286;8.534;2023-06-05T10:04:16;7.50;;;5.82;;
13943;SDS011;7044;53.286;8.534;2023-06-05T10:06:47;14.05;;;6.82;;
13943;SDS011;7044;53.286;8.534;2023-06-05T10:09:15;6.82;;;5.95;;
13943;SDS011;7044;53.286;8.534;2023-06-05T10:11:42;8.40;;;5.63;;
13943;SDS011;7044;53.286;8.534;2023-06-05T10:14:10;6.72;;;5.05;;
13943;SDS011;7044;53.286;8.534;2023-06-05T10:16:38;9.45;;;5.13;;
13943;SDS011;7044;53.286;8.534;2023-06-05T10:19:05;8.10;;;4.80;;
13943;SDS011;7044;53.286;8.534;2023-06-05T10:21:33;5.72;;;4.72;;
13943;SDS011;7044;53.286;8.534;2023-06-05T10:24:02;14.65;;;5.50;;
13943;SDS011;7044;53.286;8.534;2023-06-05T10:26:40;11.05;;;5.50;;
13943;SDS011;7044;53.286;8.534;2023-06-05T10:29:37;8.57;;;5.53;;
13943;SDS011;7044;53.286;8.534;2023-06-05T10:32:12;14.63;;;5.55;;
13943;SDS011;7044;53.286;8.534;2023-06-05T10:34:48;12.98;;;5.65;;
13943;SDS011;7044;53.286;8.534;2023-06-05T10:37:28;10.05;;;5.70;;
13943;SDS011;7044;53.286;8.534;2023-06-05T10:40:03;9.63;;;5.57;;
13943;SDS011;7044;53.286;8.534;2023-06-05T10:42:30;8.95;;;6.10;;
13943;SDS011;7044;53.286;8.534;2023-06-05T10:44:59;11.25;;;6.07;;
13943;SDS011;7044;53.286;8.534;2023-06-05T10:50:25;9.18;;;5.40;;
13943;SDS011;7044;53.286;8.534;2023-06-05T10:52:54;7.97;;;5.63;;
13943;SDS011;7044;53.286;8.534;2023-06-05T10:55:23;6.40;;;5.15;;
13943;SDS011;7044;53.286;8.534;2023-06-05T10:58:07;7.28;;;5.15;;
13943;SDS011;7044;53.286;8.534;2023-06-05T11:01:15;9.55;;;6.10;;
13943;SDS011;7044;53.286;8.534;2023-06-05T11:03:58;9.25;;;5.80;;
13943;SDS011;7044;53.286;8.534;2023-06-05T11:06:25;7.57;;;5.05;;
13943;SDS011;7044;53.286;8.534;2023-06-05T11:09:05;10.25;;;5.88;;
13943;SDS011;7044;53.286;8.534;2023-06-05T11:14:22;7.30;;;5.50;;
13943;SDS011;7044;53.286;8.534;2023-06-05T11:16:51;10.52;;;4.82;;
13943;SDS011;7044;53.286;8.534;2023-06-05T11:19:36;8.43;;;4.68;;
13943;SDS011;7044;53.286;8.534;2023-06-05T11:22:06;5.95;;;4.70;;
13943;SDS011;7044;53.286;8.534;2023-06-05T11:24:34;6.15;;;4.70;;
13943;SDS011;7044;53.286;8.534;2023-06-05T11:27:02;7.72;;;4.88;;
13943;SDS011;7044;53.286;8.534;2023-06-05T11:29:30;9.57;;;5.30;;
13943;SDS011;7044;53.286;8.534;2023-06-05T11:31:59;8.82;;;4.60;;
13943;SDS011;7044;53.286;8.534;2023-06-05T11:34:26;6.90;;;4.68;;
13943;SDS011;7044;53.286;8.534;2023-06-05T11:36:54;6.25;;;4.70;;
13943;SDS011;7044;53.286;8.534;2023-06-05T11:39:23;8.98;;;4.60;;
13943;SDS011;7044;53.286;8.534;2023-06-05T11:41:54;6.50;;;4.63;;
13943;SDS011;7044;53.286;8.534;2023-06-05T11:44:31;5.30;;;4.25;;
13943;SDS011;7044;53.286;8.534;2023-06-05T11:46:59;4.85;;;4.00;;
13943;SDS011;7044;53.286;8.534;2023-06-05T11:49:29;6.55;;;4.18;;
13943;SDS011;7044;53.286;8.534;2023-06-05T11:51:56;6.13;;;4.32;;
13943;SDS011;7044;53.286;8.534;2023-06-05T11:54:27;6.97;;;3.92;;
13943;SDS011;7044;53.286;8.534;2023-06-05T11:56:56;11.73;;;3.97;;
13943;SDS011;7044;53.286;8.534;2023-06-05T11:59:33;8.70;;;4.25;;
13943;SDS011;7044;53.286;8.534;2023-06-05T12:02:02;8.80;;;4.03;;
13943;SDS011;7044;53.286;8.534;2023-06-05T12:04:30;8.57;;;5.03;;
13943;SDS011;7044;53.286;8.534;2023-06-05T12:06:57;5.75;;;4.10;;
13943;SDS011;7044;53.286;8.534;2023-06-05T12:09:24;11.90;;;4.72;;
13943;SDS011;7044;53.286;8.534;2023-06-05T12:11:51;6.22;;;4.00;;
13943;SDS011;7044;53.286;8.534;2023-06-05T12:14:28;7.85;;;4.53;;
13943;SDS011;7044;53.286;8.534;2023-06-05T12:16:56;7.00;;;4.75;;
13943;SDS011;7044;53.286;8.534;2023-06-05T12:19:24;8.23;;;4.20;;
13943;SDS011;7044;53.286;8.534;2023-06-05T12:21:51;6.63;;;4.60;;
13943;SDS011;7044;53.286;8.534;2023-06-05T12:24:28;5.47;;;4.03;;
13943;SDS011;7044;53.286;8.534;2023-06-05T12:26:56;4.70;;;3.83;;
13943;SDS011;7044;53.286;8.534;2023-06-05T12:29:24;4.60;;;3.70;;
13943;SDS011;7044;53.286;8.534;2023-06-05T12:31:53;6.30;;;4.15;;
13943;SDS011;7044;53.286;8.534;2023-06-05T12:37:10;6.97;;;3.95;;
13943;SDS011;7044;53.286;8.534;2023-06-05T12:39:38;6.90;;;3.60;;
13943;SDS011;7044;53.286;8.534;2023-06-05T12:42:05;6.97;;;3.78;;
13943;SDS011;7044;53.286;8.534;2023-06-05T12:44:33;7.13;;;4.07;;
13943;SDS011;7044;53.286;8.534;2023-06-05T12:46:59;7.18;;;4.22;;
13943;SDS011;7044;53.286;8.534;2023-06-05T12:49:26;5.13;;;3.47;;
13943;SDS011;7044;53.286;8.534;2023-06-05T12:51:54;5.43;;;3.90;;
13943;SDS011;7044;53.286;8.534;2023-06-05T12:54:22;5.78;;;3.97;;
13943;SDS011;7044;53.286;8.534;2023-06-05T12:56:49;7.22;;;3.67;;
13943;SDS011;7044;53.286;8.534;2023-06-05T12:59:16;4.55;;;3.33;;
13943;SDS011;7044;53.286;8.534;2023-06-05T13:01:43;4.47;;;3.47;;
13943;SDS011;7044;53.286;8.534;2023-06-05T13:04:10;8.85;;;3.65;;
13943;SDS011;7044;53.286;8.534;2023-06-05T13:06:37;5.65;;;3.63;;
13943;SDS011;7044;53.286;8.534;2023-06-05T13:09:05;4.60;;;3.22;;
13943;SDS011;7044;53.286;8.534;2023-06-05T13:11:32;4.22;;;3.28;;
13943;SDS011;7044;53.286;8.534;2023-06-05T13:13:59;6.18;;;3.15;;
13943;SDS011;7044;53.286;8.534;2023-06-05T13:16:26;5.22;;;3.40;;
13943;SDS011;7044;53.286;8.534;2023-06-05T13:18:53;5.43;;;3.30;;
13943;SDS011;7044;53.286;8.534;2023-06-05T13:21:20;4.07;;;3.30;;
13943;SDS011;7044;53.286;8.534;2023-06-05T13:23:47;5.95;;;3.33;;
13943;SDS011;7044;53.286;8.534;2023-06-05T13:26:16;6.78;;;3.28;;
13943;SDS011;7044;53.286;8.534;2023-06-05T13:28:43;6.57;;;3.25;;
13943;SDS011;7044;53.286;8.534;2023-06-05T13:31:11;6.32;;;3.88;;
13943;SDS011;7044;53.286;8.534;2023-06-05T13:33:38;6.75;;;3.40;;
13943;SDS011;7044;53.286;8.534;2023-06-05T13:36:05;4.03;;;3.42;;
13943;SDS011;7044;53.286;8.534;2023-06-05T13:38:33;3.90;;;3.15;;
13943;SDS011;7044;53.286;8.534;2023-06-05T13:41:02;3.70;;;2.90;;
13943;SDS011;7044;53.286;8.534;2023-06-05T13:43:30;4.28;;;2.83;;
13943;SDS011;7044;53.286;8.534;2023-06-05T13:45:59;6.80;;;3.47;;
13943;SDS011;7044;53.286;8.534;2023-06-05T13:48:26;4.90;;;2.92;;
13943;SDS011;7044;53.286;8.534;2023-06-05T13:50:53;5.80;;;3.42;;
13943;SDS011;7044;53.286;8.534;2023-06-05T13:53:21;5.40;;;3.55;;
13943;SDS011;7044;53.286;8.534;2023-06-05T13:55:48;4.10;;;3.30;;
13943;SDS011;7044;53.286;8.534;2023-06-05T13:58:14;5.95;;;3.53;;
13943;SDS011;7044;53.286;8.534;2023-06-05T14:00:43;10.85;;;3.40;;
13943;SDS011;7044;53.286;8.534;2023-06-05T14:03:10;5.40;;;3.40;;
13943;SDS011;7044;53.286;8.534;2023-06-05T14:05:37;6.15;;;4.13;;
13943;SDS011;7044;53.286;8.534;2023-06-05T14:08:04;5.55;;;4.05;;
13943;SDS011;7044;53.286;8.534;2023-06-05T14:10:32;4.10;;;3.58;;
13943;SDS011;7044;53.286;8.534;2023-06-05T14:13:01;5.28;;;3.75;;
13943;SDS011;7044;53.286;8.534;2023-06-05T14:15:29;10.98;;;3.60;;
13943;SDS011;7044;53.286;8.534;2023-06-05T14:17:59;4.72;;;3.50;;
13943;SDS011;7044;53.286;8.534;2023-06-05T14:20:27;6.10;;;3.30;;
13943;SDS011;7044;53.286;8.534;2023-06-05T14:22:55;8.05;;;3.40;;
13943;SDS011;7044;53.286;8.534;2023-06-05T14:25:22;4.97;;;3.22;;
13943;SDS011;7044;53.286;8.534;2023-06-05T14:27:53;5.45;;;2.78;;
13943;SDS011;7044;53.286;8.534;2023-06-05T14:30:20;4.07;;;2.88;;
13943;SDS011;7044;53.286;8.534;2023-06-05T14:32:47;3.53;;;2.72;;
13943;SDS011;7044;53.286;8.534;2023-06-05T14:35:15;5.32;;;2.83;;
13943;SDS011;7044;53.286;8.534;2023-06-05T14:37:44;5.82;;;2.92;;
13943;SDS011;7044;53.286;8.534;2023-06-05T14:40:11;5.75;;;2.88;;
13943;SDS011;7044;53.286;8.534;2023-06-05T14:42:38;4.68;;;2.95;;
13943;SDS011;7044;53.286;8.534;2023-06-05T14:45:05;4.53;;;2.83;;
13943;SDS011;7044;53.286;8.534;2023-06-05T14:47:33;4.07;;;2.92;;
13943;SDS011;7044;53.286;8.534;2023-06-05T14:50:00;5.15;;;3.30;;
13943;SDS011;7044;53.286;8.534;2023-06-05T14:52:28;4.53;;;3.00;;
13943;SDS011;7044;53.286;8.534;2023-06-05T14:54:55;4.60;;;2.80;;
13943;SDS011;7044;53.286;8.534;2023-06-05T14:57:22;5.40;;;2.92;;
13943;SDS011;7044;53.286;8.534;2023-06-05T14:59:48;4.93;;;2.80;;
13943;SDS011;7044;53.286;8.534;2023-06-05T15:02:15;4.07;;;2.85;;
13943;SDS011;7044;53.286;8.534;2023-06-05T15:04:47;2.72;;;2.22;;
13943;SDS011;7044;53.286;8.534;2023-06-05T15:09:45;6.55;;;2.88;;
13943;SDS011;7044;53.286;8.534;2023-06-05T15:12:12;4.78;;;2.80;;
13943;SDS011;7044;53.286;8.534;2023-06-05T15:14:39;7.10;;;2.67;;
13943;SDS011;7044;53.286;8.534;2023-06-05T15:17:06;6.60;;;2.90;;